createdAt,value
2018-05-18T00:00:22.284Z,6.62
2018-05-18T00:00:53.489Z,7.00
2018-05-18T00:01:24.701Z,6.53
2018-05-18T00:01:55.924Z,5.60
2018-05-18T00:02:27.137Z,5.10
2018-05-18T00:02:58.342Z,6.47
2018-05-18T00:03:29.550Z,5.65
2018-05-18T00:04:00.815Z,4.80
2018-05-18T00:04:32.025Z,4.97
2018-05-18T00:05:03.244Z,4.57
2018-05-18T00:05:34.453Z,7.28
2018-05-18T00:06:05.668Z,4.50
2018-05-18T00:06:36.869Z,6.78
2018-05-18T00:07:08.073Z,5.47
2018-05-18T00:07:39.323Z,4.55
2018-05-18T00:08:10.535Z,7.90
2018-05-18T00:08:41.757Z,7.12
2018-05-18T00:09:13.006Z,4.82
2018-05-18T00:09:44.213Z,5.43
2018-05-18T00:10:15.448Z,5.18
2018-05-18T00:10:46.672Z,4.35
2018-05-18T00:11:17.904Z,5.80
2018-05-18T00:11:49.121Z,4.65
2018-05-18T00:12:20.373Z,5.07
2018-05-18T00:12:51.627Z,6.30
2018-05-18T00:13:22.834Z,6.15
2018-05-18T00:13:54.063Z,6.65
2018-05-18T00:14:25.310Z,6.35
2018-05-18T00:14:56.531Z,4.53
2018-05-18T00:15:27.745Z,7.22
2018-05-18T00:15:58.974Z,4.50
2018-05-18T00:16:30.197Z,6.85
2018-05-18T00:17:01.422Z,8.20
2018-05-18T00:17:32.633Z,6.20
2018-05-18T00:18:04.873Z,5.57
2018-05-18T00:18:36.119Z,5.97
2018-05-18T00:19:07.325Z,6.43
2018-05-18T00:19:38.547Z,4.47
2018-05-18T00:20:09.785Z,8.05
2018-05-18T00:20:40.989Z,7.07
2018-05-18T00:21:12.275Z,6.30
2018-05-18T00:21:43.490Z,4.72
2018-05-18T00:22:14.716Z,4.82
2018-05-18T00:22:45.941Z,7.57
2018-05-18T00:23:17.178Z,6.00
2018-05-18T00:23:48.465Z,8.50
2018-05-18T00:24:19.732Z,6.18
2018-05-18T00:24:50.942Z,7.07
2018-05-18T00:25:22.149Z,5.62
2018-05-18T00:25:53.349Z,6.78
2018-05-18T00:26:24.564Z,5.28
2018-05-18T00:26:55.771Z,6.57
2018-05-18T00:27:26.991Z,8.18
2018-05-18T00:27:58.211Z,6.25
2018-05-18T00:28:29.417Z,10.70
2018-05-18T00:29:02.034Z,6.78
2018-05-18T00:29:35.444Z,6.35
2018-05-18T00:30:07.431Z,6.05
2018-05-18T00:30:39.100Z,10.50
2018-05-18T00:31:11.560Z,7.87
2018-05-18T00:31:44.380Z,8.43
2018-05-18T00:33:01.968Z,7.65
2018-05-18T00:34:10.779Z,7.03
2018-05-18T00:34:42.718Z,8.00
2018-05-18T00:35:14.351Z,8.38
2018-05-18T00:35:45.700Z,7.78
2018-05-18T00:36:18.617Z,8.02
2018-05-18T00:36:50.914Z,7.12
2018-05-18T00:37:22.719Z,7.10
2018-05-18T00:37:54.146Z,9.13
2018-05-18T00:38:25.352Z,7.68
2018-05-18T00:38:56.585Z,7.55
2018-05-18T00:39:27.797Z,7.93
2018-05-18T00:39:59.037Z,6.15
2018-05-18T00:40:30.249Z,6.78
2018-05-18T00:41:01.488Z,9.48
2018-05-18T00:41:32.697Z,7.82
2018-05-18T00:42:03.901Z,9.57
2018-05-18T00:42:35.105Z,6.57
2018-05-18T00:43:06.324Z,7.28
2018-05-18T00:43:37.525Z,7.35
2018-05-18T00:44:08.741Z,5.90
2018-05-18T00:44:39.945Z,7.55
2018-05-18T00:45:11.159Z,5.57
2018-05-18T00:45:42.365Z,8.90
2018-05-18T00:46:13.616Z,9.18
2018-05-18T00:46:44.837Z,6.90
2018-05-18T00:47:16.055Z,9.35
2018-05-18T00:47:47.269Z,7.20
2018-05-18T00:48:18.481Z,9.32
2018-05-18T00:48:49.697Z,7.95
2018-05-18T00:49:20.900Z,10.55
2018-05-18T00:49:52.133Z,8.77
2018-05-18T00:50:23.411Z,9.63
2018-05-18T00:50:54.593Z,12.18
2018-05-18T00:51:25.803Z,9.82
2018-05-18T00:51:57.017Z,7.07
2018-05-18T00:52:28.225Z,8.13
2018-05-18T00:52:59.427Z,7.75
2018-05-18T00:53:30.673Z,9.40
2018-05-18T00:54:01.881Z,8.82
2018-05-18T00:54:33.108Z,11.32
2018-05-18T00:55:04.322Z,10.32
2018-05-18T00:55:35.535Z,11.38
2018-05-18T00:56:06.753Z,11.07
2018-05-18T00:56:38.013Z,12.57
2018-05-18T00:57:09.265Z,12.18
2018-05-18T00:57:40.484Z,9.00
2018-05-18T00:58:11.698Z,9.23
2018-05-18T00:58:42.917Z,9.82
2018-05-18T00:59:14.121Z,14.25
2018-05-18T00:59:45.321Z,8.48
2018-05-18T01:00:16.526Z,11.10
2018-05-18T01:00:47.776Z,9.93
2018-05-18T01:01:19.009Z,12.27
2018-05-18T01:01:50.221Z,10.90
2018-05-18T01:02:21.428Z,11.60
2018-05-18T01:02:52.637Z,11.68
2018-05-18T01:03:23.908Z,9.88
2018-05-18T01:03:55.119Z,10.48
2018-05-18T01:04:26.370Z,10.13
2018-05-18T01:04:57.582Z,8.57
2018-05-18T01:05:28.789Z,11.68
2018-05-18T01:06:00.038Z,10.70
2018-05-18T01:06:31.250Z,15.45
2018-05-18T01:07:02.458Z,10.20
2018-05-18T01:07:33.679Z,13.23
2018-05-18T01:08:04.893Z,11.63
2018-05-18T01:08:36.125Z,10.70
2018-05-18T01:09:07.348Z,11.70
2018-05-18T01:09:38.601Z,10.50
2018-05-18T01:10:09.813Z,10.05
2018-05-18T01:10:41.019Z,9.27
2018-05-18T01:11:12.853Z,12.65
2018-05-18T01:11:44.068Z,12.70
2018-05-18T01:12:15.276Z,13.52
2018-05-18T01:12:46.481Z,12.27
2018-05-18T01:13:17.688Z,11.07
2018-05-18T01:13:48.897Z,10.70
2018-05-18T01:14:20.107Z,10.00
2018-05-18T01:14:51.359Z,11.07
2018-05-18T01:15:22.605Z,12.57
2018-05-18T01:15:53.889Z,10.13
2018-05-18T01:16:25.074Z,12.98
2018-05-18T01:16:56.282Z,10.35
2018-05-18T01:17:27.529Z,8.90
2018-05-18T01:17:58.740Z,11.70
2018-05-18T01:18:29.962Z,9.02
2018-05-18T01:19:01.181Z,10.32
2018-05-18T01:19:32.421Z,11.73
2018-05-18T01:20:03.703Z,13.05
2018-05-18T01:20:36.072Z,10.40
2018-05-18T01:21:07.341Z,9.10
2018-05-18T01:22:15.930Z,12.70
2018-05-18T01:22:48.250Z,11.38
2018-05-18T01:23:20.264Z,9.85
2018-05-18T01:23:52.322Z,10.60
2018-05-18T01:24:24.713Z,11.43
2018-05-18T01:24:56.849Z,16.17
2018-05-18T01:25:28.893Z,11.20
2018-05-18T01:26:00.280Z,13.62
2018-05-18T01:26:31.668Z,13.13
2018-05-18T01:27:02.993Z,11.57
2018-05-18T01:27:34.338Z,10.70
2018-05-18T01:28:05.620Z,13.48
2018-05-18T01:28:37.949Z,11.85
2018-05-18T01:29:09.341Z,12.40
2018-05-18T01:29:40.736Z,10.43
2018-05-18T01:30:13.072Z,10.63
2018-05-18T01:30:44.437Z,9.52
2018-05-18T01:31:15.681Z,11.25
2018-05-18T01:31:46.892Z,9.65
2018-05-18T01:32:18.188Z,10.23
2018-05-18T01:32:49.437Z,11.05
2018-05-18T01:33:20.659Z,9.85
2018-05-18T01:33:51.879Z,13.98
2018-05-18T01:34:23.091Z,14.48
2018-05-18T01:34:54.381Z,12.48
2018-05-18T01:35:25.602Z,11.70
2018-05-18T01:35:56.821Z,13.68
2018-05-18T01:36:28.067Z,15.05
2018-05-18T01:36:59.283Z,10.18
2018-05-18T01:37:30.512Z,13.27
2018-05-18T01:38:01.717Z,13.45
2018-05-18T01:38:32.937Z,10.30
2018-05-18T01:39:04.149Z,13.27
2018-05-18T01:39:35.360Z,11.60
2018-05-18T01:40:06.570Z,10.30
2018-05-18T01:40:37.777Z,10.65
2018-05-18T01:41:08.992Z,12.50
2018-05-18T01:41:40.250Z,10.18
2018-05-18T01:42:11.464Z,14.10
2018-05-18T01:42:42.685Z,9.57
2018-05-18T01:43:13.901Z,10.70
2018-05-18T01:43:45.151Z,9.93
2018-05-18T01:44:16.357Z,11.90
2018-05-18T01:44:47.561Z,12.15
2018-05-18T01:45:18.752Z,12.07
2018-05-18T01:45:49.961Z,12.00
2018-05-18T01:46:21.176Z,10.63
2018-05-18T01:46:52.423Z,12.15
2018-05-18T01:47:23.633Z,13.85
2018-05-18T01:47:54.894Z,11.98
2018-05-18T01:48:26.105Z,12.40
2018-05-18T01:48:57.343Z,14.10
2018-05-18T01:49:28.544Z,13.30
2018-05-18T01:49:59.747Z,13.32
2018-05-18T01:50:30.965Z,12.98
2018-05-18T01:51:02.170Z,11.82
2018-05-18T01:51:33.391Z,12.25
2018-05-18T01:52:04.615Z,15.15
2018-05-18T01:52:35.881Z,15.07
2018-05-18T01:53:07.133Z,15.98
2018-05-18T01:53:38.344Z,14.75
2018-05-18T01:54:09.557Z,13.45
2018-05-18T01:54:40.788Z,11.82
2018-05-18T01:55:12.028Z,14.38
2018-05-18T01:55:43.252Z,11.55
2018-05-18T01:56:14.930Z,12.05
2018-05-18T01:56:46.136Z,14.00
2018-05-18T01:57:17.381Z,13.10
2018-05-18T01:57:48.598Z,12.02
2018-05-18T01:58:19.824Z,16.60
2018-05-18T01:58:51.062Z,16.40
2018-05-18T01:59:22.281Z,13.65
2018-05-18T01:59:53.529Z,12.07
2018-05-18T02:00:24.790Z,18.45
2018-05-18T02:00:56.025Z,14.73
2018-05-18T02:01:27.240Z,13.90
2018-05-18T02:01:58.457Z,13.93
2018-05-18T02:02:29.699Z,15.52
2018-05-18T02:03:00.917Z,14.15
2018-05-18T02:03:32.129Z,14.05
2018-05-18T02:04:03.389Z,12.27
2018-05-18T02:04:34.603Z,13.60
2018-05-18T02:05:05.857Z,13.48
2018-05-18T02:05:37.089Z,12.75
2018-05-18T02:06:08.301Z,13.55
2018-05-18T02:06:39.500Z,13.27
2018-05-18T02:07:10.708Z,15.85
2018-05-18T02:07:41.989Z,14.40
2018-05-18T02:08:13.237Z,13.98
2018-05-18T02:08:44.483Z,13.45
2018-05-18T02:09:15.707Z,12.90
2018-05-18T02:09:46.930Z,14.27
2018-05-18T02:10:18.156Z,13.25
2018-05-18T02:10:49.379Z,13.93
2018-05-18T02:11:20.592Z,12.40
2018-05-18T02:11:51.807Z,13.13
2018-05-18T02:12:23.012Z,12.00
2018-05-18T02:12:54.269Z,12.43
2018-05-18T02:13:25.477Z,13.05
2018-05-18T02:13:56.685Z,14.23
2018-05-18T02:14:27.890Z,12.30
2018-05-18T02:14:59.114Z,13.13
2018-05-18T02:15:30.347Z,14.18
2018-05-18T02:16:01.582Z,13.20
2018-05-18T02:16:32.805Z,13.95
2018-05-18T02:17:04.025Z,14.27
2018-05-18T02:17:35.295Z,12.43
2018-05-18T02:18:06.513Z,12.85
2018-05-18T02:18:37.724Z,12.32
2018-05-18T02:19:08.928Z,12.30
2018-05-18T02:19:40.137Z,15.35
2018-05-18T02:20:11.373Z,14.07
2018-05-18T02:20:42.584Z,15.48
2018-05-18T02:21:13.797Z,11.88
2018-05-18T02:21:45.017Z,12.70
2018-05-18T02:22:16.227Z,12.05
2018-05-18T02:22:47.508Z,11.73
2018-05-18T02:23:18.728Z,12.52
2018-05-18T02:23:49.954Z,12.37
2018-05-18T02:24:21.180Z,12.60
2018-05-18T02:24:52.382Z,11.88
2018-05-18T02:25:23.630Z,13.18
2018-05-18T02:25:54.856Z,12.80
2018-05-18T02:26:26.083Z,12.32
2018-05-18T02:26:57.293Z,11.98
2018-05-18T02:27:28.547Z,12.25
2018-05-18T02:27:59.773Z,14.40
2018-05-18T02:28:30.984Z,13.35
2018-05-18T02:29:02.224Z,11.93
2018-05-18T02:29:33.443Z,13.30
2018-05-18T02:30:04.662Z,14.40
2018-05-18T02:30:35.887Z,12.55
2018-05-18T02:31:07.099Z,14.50
2018-05-18T02:31:38.308Z,12.93
2018-05-18T02:32:09.521Z,11.98
2018-05-18T02:32:40.731Z,11.63
2018-05-18T02:33:12.000Z,12.45
2018-05-18T02:33:43.213Z,12.27
2018-05-18T02:34:14.470Z,12.45
2018-05-18T02:34:45.678Z,12.48
2018-05-18T02:35:16.894Z,13.48
2018-05-18T02:35:48.112Z,13.00
2018-05-18T02:36:19.326Z,12.63
2018-05-18T02:36:50.549Z,11.55
2018-05-18T02:37:21.789Z,12.73
2018-05-18T02:37:52.988Z,12.95
2018-05-18T02:38:24.226Z,13.55
2018-05-18T02:38:55.446Z,12.63
2018-05-18T02:39:26.695Z,11.82
2018-05-18T02:39:57.893Z,12.20
2018-05-18T02:40:29.130Z,12.75
2018-05-18T02:41:00.342Z,13.77
2018-05-18T02:41:31.583Z,12.18
2018-05-18T02:42:02.790Z,11.57
2018-05-18T02:42:34.009Z,11.70
2018-05-18T02:43:05.248Z,11.70
2018-05-18T02:43:36.475Z,14.20
2018-05-18T02:44:07.704Z,11.80
2018-05-18T02:44:38.949Z,12.65
2018-05-18T02:45:10.189Z,12.68
2018-05-18T02:45:41.497Z,14.48
2018-05-18T02:46:12.706Z,11.88
2018-05-18T02:46:43.949Z,11.80
2018-05-18T02:47:15.173Z,12.88
2018-05-18T02:47:46.410Z,12.25
2018-05-18T02:48:17.672Z,13.05
2018-05-18T02:48:48.931Z,11.30
2018-05-18T02:49:20.153Z,12.25
2018-05-18T02:49:51.376Z,13.07
2018-05-18T02:50:22.596Z,12.13
2018-05-18T02:50:53.875Z,12.10
2018-05-18T02:51:25.089Z,11.98
2018-05-18T02:51:56.358Z,12.82
2018-05-18T02:52:27.609Z,12.13
2018-05-18T02:52:58.831Z,10.60
2018-05-18T02:53:30.046Z,11.40
2018-05-18T02:54:01.249Z,12.90
2018-05-18T02:54:32.456Z,12.00
2018-05-18T02:55:03.679Z,11.43
2018-05-18T02:55:34.891Z,11.65
2018-05-18T02:56:06.097Z,10.95
2018-05-18T02:56:37.311Z,12.73
2018-05-18T02:57:08.571Z,14.55
2018-05-18T02:57:39.806Z,14.25
2018-05-18T02:58:11.055Z,14.57
2018-05-18T02:58:42.287Z,13.15
2018-05-18T02:59:13.499Z,11.95
2018-05-18T02:59:44.708Z,12.30
2018-05-18T03:00:15.924Z,11.88
2018-05-18T03:00:47.137Z,11.50
2018-05-18T03:01:18.374Z,12.48
2018-05-18T03:01:49.596Z,13.68
2018-05-18T03:02:20.863Z,12.05
2018-05-18T03:02:52.073Z,13.00
2018-05-18T03:03:23.281Z,14.27
2018-05-18T03:03:54.488Z,11.98
2018-05-18T03:04:25.695Z,15.88
2018-05-18T03:04:56.922Z,11.52
2018-05-18T03:05:28.137Z,11.50
2018-05-18T03:05:59.363Z,10.23
2018-05-18T03:06:30.580Z,10.45
2018-05-18T03:07:01.785Z,13.38
2018-05-18T03:07:33.057Z,10.43
2018-05-18T03:08:04.270Z,10.43
2018-05-18T03:08:35.472Z,10.32
2018-05-18T03:09:06.680Z,9.93
2018-05-18T03:09:37.897Z,13.50
2018-05-18T03:10:09.118Z,10.07
2018-05-18T03:10:40.338Z,10.18
2018-05-18T03:11:11.545Z,10.57
2018-05-18T03:11:42.754Z,12.40
2018-05-18T03:12:13.989Z,10.70
2018-05-18T03:12:45.253Z,10.35
2018-05-18T03:13:16.561Z,10.68
2018-05-18T03:13:48.845Z,10.80
2018-05-18T03:14:20.493Z,10.43
2018-05-18T03:14:51.874Z,10.90
2018-05-18T03:15:23.293Z,14.63
2018-05-18T03:15:54.647Z,11.88
2018-05-18T03:16:28.066Z,11.25
2018-05-18T03:17:00.051Z,11.12
2018-05-18T03:17:31.619Z,10.35
2018-05-18T03:18:03.536Z,11.85
2018-05-18T03:18:34.917Z,12.25
2018-05-18T03:19:07.191Z,11.63
2018-05-18T03:19:39.828Z,10.65
2018-05-18T03:20:11.120Z,11.02
2018-05-18T03:20:42.887Z,11.30
2018-05-18T03:21:15.854Z,11.52
2018-05-18T03:21:49.953Z,11.82
2018-05-18T03:22:21.566Z,11.45
2018-05-18T03:22:52.905Z,11.05
2018-05-18T03:23:26.483Z,11.85
2018-05-18T03:23:57.836Z,11.93
2018-05-18T03:24:29.127Z,8.20
2018-05-18T03:25:00.529Z,8.13
2018-05-18T03:25:39.567Z,10.65
2018-05-18T03:26:12.400Z,7.78
2018-05-18T03:26:44.539Z,8.55
2018-05-18T03:27:17.346Z,9.95
2018-05-18T03:27:48.825Z,10.32
2018-05-18T03:28:21.053Z,12.60
2018-05-18T03:28:52.642Z,9.77
2018-05-18T03:29:24.854Z,8.52
2018-05-18T03:29:56.466Z,8.60
2018-05-18T03:30:28.029Z,9.77
2018-05-18T03:31:02.040Z,9.18
2018-05-18T03:31:34.443Z,7.40
2018-05-18T03:32:06.521Z,8.07
2018-05-18T03:32:38.694Z,8.60
2018-05-18T03:33:12.026Z,9.27
2018-05-18T03:33:44.313Z,7.47
2018-05-18T03:34:16.462Z,8.32
2018-05-18T03:34:49.137Z,7.78
2018-05-18T03:35:22.992Z,7.95
2018-05-18T03:35:56.344Z,10.23
2018-05-18T03:36:27.775Z,9.70
2018-05-18T03:37:01.730Z,8.45
2018-05-18T03:38:10.912Z,7.78
2018-05-18T03:38:43.175Z,8.13
2018-05-18T03:39:57.683Z,7.12
2018-05-18T03:40:29.001Z,8.63
2018-05-18T03:41:00.223Z,7.32
2018-05-18T03:41:31.451Z,9.15
2018-05-18T03:42:02.690Z,7.10
2018-05-18T03:42:33.923Z,10.45
2018-05-18T03:43:05.128Z,7.50
2018-05-18T03:43:36.349Z,7.45
2018-05-18T03:44:07.556Z,8.80
2018-05-18T03:44:38.828Z,9.30
2018-05-18T03:45:10.345Z,7.60
2018-05-18T03:45:41.549Z,7.43
2018-05-18T03:46:12.756Z,8.30
2018-05-18T03:46:43.959Z,8.10
2018-05-18T03:47:15.229Z,9.02
2018-05-18T03:47:46.475Z,7.85
2018-05-18T03:48:17.681Z,7.50
2018-05-18T03:48:48.873Z,8.85
2018-05-18T03:49:20.093Z,8.02
2018-05-18T03:49:51.309Z,8.40
2018-05-18T03:50:22.582Z,12.27
2018-05-18T03:50:53.788Z,8.38
2018-05-18T03:51:25.020Z,8.20
2018-05-18T03:51:56.258Z,11.07
2018-05-18T03:52:27.486Z,8.32
2018-05-18T03:52:58.693Z,8.30
2018-05-18T03:53:30.193Z,8.15
2018-05-18T03:54:01.439Z,10.85
2018-05-18T03:54:32.669Z,9.05
2018-05-18T03:55:03.880Z,10.93
2018-05-18T03:55:35.148Z,9.48
2018-05-18T03:56:06.353Z,12.00
2018-05-18T03:56:37.576Z,10.98
2018-05-18T03:57:08.793Z,12.13
2018-05-18T03:57:40.013Z,13.57
2018-05-18T03:58:11.228Z,12.15
2018-05-18T03:58:42.449Z,12.90
2018-05-18T03:59:13.696Z,12.60
2018-05-18T03:59:44.938Z,12.07
2018-05-18T04:00:16.162Z,12.68
2018-05-18T04:00:47.433Z,13.70
2018-05-18T04:01:18.673Z,12.50
2018-05-18T04:01:49.912Z,11.97
2018-05-18T04:02:21.142Z,11.63
2018-05-18T04:02:52.341Z,11.17
2018-05-18T04:03:23.554Z,12.97
2018-05-18T04:03:54.775Z,15.23
2018-05-18T04:04:26.017Z,13.98
2018-05-18T04:04:57.240Z,17.53
2018-05-18T04:05:28.452Z,16.67
2018-05-18T04:05:59.710Z,14.20
2018-05-18T04:06:30.921Z,20.77
2018-05-18T04:07:02.742Z,11.97
2018-05-18T04:07:33.952Z,13.60
2018-05-18T04:08:05.151Z,10.70
2018-05-18T04:08:36.373Z,11.00
2018-05-18T04:09:07.587Z,13.65
2018-05-18T04:09:38.805Z,14.00
2018-05-18T04:10:10.035Z,12.32
2018-05-18T04:10:41.249Z,12.13
2018-05-18T04:11:12.529Z,15.50
2018-05-18T04:11:43.799Z,15.70
2018-05-18T04:12:15.017Z,13.57
2018-05-18T04:12:46.261Z,18.70
2018-05-18T04:13:17.481Z,14.95
2018-05-18T04:13:48.742Z,12.20
2018-05-18T04:14:19.962Z,13.43
2018-05-18T04:14:51.188Z,12.37
2018-05-18T04:15:22.409Z,11.25
2018-05-18T04:15:53.637Z,13.13
2018-05-18T04:16:24.885Z,11.00
2018-05-18T04:16:56.113Z,12.15
2018-05-18T04:17:27.334Z,10.20
2018-05-18T04:17:58.556Z,13.25
2018-05-18T04:18:29.764Z,10.57
2018-05-18T04:19:00.990Z,10.88
2018-05-18T04:19:33.505Z,11.00
2018-05-18T04:20:04.721Z,11.25
2018-05-18T04:20:35.945Z,10.68
2018-05-18T04:21:07.161Z,11.05
2018-05-18T04:21:38.476Z,12.70
2018-05-18T04:22:09.712Z,11.25
2018-05-18T04:22:40.929Z,10.77
2018-05-18T04:23:12.193Z,11.00
2018-05-18T04:23:43.425Z,11.02
2018-05-18T04:24:14.645Z,10.93
2018-05-18T04:24:45.853Z,10.63
2018-05-18T04:25:17.065Z,11.07
2018-05-18T04:25:48.288Z,13.10
2018-05-18T04:26:19.501Z,11.38
2018-05-18T04:26:50.772Z,14.85
2018-05-18T04:27:21.992Z,14.45
2018-05-18T04:27:53.239Z,14.15
2018-05-18T04:28:24.435Z,16.17
2018-05-18T04:28:55.662Z,12.10
2018-05-18T04:29:26.876Z,12.07
2018-05-18T04:29:58.103Z,12.07
2018-05-18T04:30:29.484Z,12.88
2018-05-18T04:31:00.639Z,13.13
2018-05-18T04:31:31.883Z,13.93
2018-05-18T04:32:03.109Z,12.75
2018-05-18T04:32:34.375Z,11.90
2018-05-18T04:33:05.601Z,12.60
2018-05-18T04:33:36.826Z,11.90
2018-05-18T04:34:08.045Z,10.63
2018-05-18T04:34:39.272Z,12.93
2018-05-18T04:35:10.497Z,10.75
2018-05-18T04:35:41.744Z,10.50
2018-05-18T04:36:12.964Z,9.75
2018-05-18T04:36:44.173Z,9.73
2018-05-18T04:37:16.405Z,10.23
2018-05-18T04:37:47.661Z,11.63
2018-05-18T04:38:18.871Z,11.12
2018-05-18T04:38:50.097Z,8.82
2018-05-18T04:39:21.334Z,9.93
2018-05-18T04:39:52.596Z,9.25
2018-05-18T04:40:23.804Z,8.82
2018-05-18T04:40:55.013Z,8.77
2018-05-18T04:41:26.233Z,9.45
2018-05-18T04:41:57.449Z,8.30
2018-05-18T04:42:28.710Z,7.65
2018-05-18T04:42:59.918Z,9.13
2018-05-18T04:43:31.117Z,9.10
2018-05-18T04:44:02.325Z,9.57
2018-05-18T04:44:33.576Z,8.43
2018-05-18T04:45:04.837Z,8.38
2018-05-18T04:45:36.069Z,8.57
2018-05-18T04:46:07.286Z,7.80
2018-05-18T04:46:38.486Z,10.15
2018-05-18T04:47:09.729Z,8.18
2018-05-18T04:47:40.923Z,8.40
2018-05-18T04:48:12.185Z,7.97
2018-05-18T04:48:43.393Z,8.03
2018-05-18T04:49:14.619Z,7.67
2018-05-18T04:49:45.841Z,8.93
2018-05-18T04:50:17.100Z,8.93
2018-05-18T04:50:48.325Z,8.00
2018-05-18T04:51:19.543Z,8.80
2018-05-18T04:51:50.763Z,9.07
2018-05-18T04:52:21.974Z,9.20
2018-05-18T04:52:53.196Z,7.97
2018-05-18T04:53:24.404Z,7.10
2018-05-18T04:53:55.665Z,9.87
2018-05-18T04:54:26.869Z,9.33
2018-05-18T04:54:58.094Z,7.50
2018-05-18T04:55:29.305Z,7.67
2018-05-18T04:56:00.560Z,6.97
2018-05-18T04:56:31.770Z,9.57
2018-05-18T04:57:02.989Z,6.80
2018-05-18T04:57:34.213Z,6.70
2018-05-18T04:58:05.484Z,9.10
2018-05-18T04:58:36.695Z,8.30
2018-05-18T04:59:07.912Z,7.77
2018-05-18T04:59:39.124Z,8.90
2018-05-18T05:00:10.353Z,7.60
2018-05-18T05:00:41.540Z,8.70
2018-05-18T05:01:12.805Z,7.70
2018-05-18T05:01:44.026Z,9.50
2018-05-18T05:02:15.264Z,7.33
2018-05-18T05:02:46.489Z,11.53
2018-05-18T05:03:17.706Z,8.93
2018-05-18T05:03:48.921Z,14.80
2018-05-18T05:04:20.134Z,11.57
2018-05-18T05:04:51.360Z,8.13
2018-05-18T05:05:22.667Z,8.17
2018-05-18T05:05:53.917Z,11.27
2018-05-18T05:06:25.152Z,8.27
2018-05-18T05:06:56.349Z,6.97
2018-05-18T05:07:27.556Z,11.07
2018-05-18T05:07:58.753Z,8.63
2018-05-18T05:08:29.973Z,6.90
2018-05-18T05:09:01.221Z,6.60
2018-05-18T05:09:32.427Z,7.87
2018-05-18T05:10:03.636Z,7.97
2018-05-18T05:10:34.849Z,10.10
2018-05-18T05:11:06.065Z,8.53
2018-05-18T05:11:37.269Z,7.10
2018-05-18T05:12:08.533Z,6.37
2018-05-18T05:12:39.826Z,7.03
2018-05-18T05:13:11.041Z,10.67
2018-05-18T05:13:42.244Z,6.90
2018-05-18T05:14:13.455Z,9.37
2018-05-18T05:14:44.657Z,8.30
2018-05-18T05:15:15.881Z,6.63
2018-05-18T05:15:47.114Z,8.77
2018-05-18T05:16:18.329Z,8.90
2018-05-18T05:16:49.541Z,9.37
2018-05-18T05:17:20.793Z,7.80
2018-05-18T05:17:52.070Z,7.83
2018-05-18T05:18:23.238Z,6.30
2018-05-18T05:18:54.437Z,8.33
2018-05-18T05:19:25.671Z,6.43
2018-05-18T05:19:56.881Z,6.77
2018-05-18T05:20:28.119Z,7.97
2018-05-18T05:20:59.332Z,8.07
2018-05-18T05:21:30.581Z,8.00
2018-05-18T05:22:01.805Z,6.63
2018-05-18T05:22:33.018Z,7.37
2018-05-18T05:23:04.221Z,7.63
2018-05-18T05:23:35.442Z,8.10
2018-05-18T05:24:06.682Z,6.57
2018-05-18T05:24:37.896Z,6.13
2018-05-18T05:25:09.147Z,7.67
2018-05-18T05:25:40.353Z,7.10
2018-05-18T05:26:11.593Z,5.33
2018-05-18T05:26:42.842Z,5.93
2018-05-18T05:27:14.088Z,6.37
2018-05-18T05:27:45.293Z,6.33
2018-05-18T05:28:16.542Z,6.83
2018-05-18T05:28:47.746Z,5.70
2018-05-18T05:29:18.976Z,6.63
2018-05-18T05:29:50.218Z,9.20
2018-05-18T05:30:21.485Z,6.17
2018-05-18T05:30:52.696Z,6.47
2018-05-18T05:31:23.898Z,7.27
2018-05-18T05:31:55.115Z,6.00
2018-05-18T05:32:26.325Z,7.03
2018-05-18T05:32:57.596Z,6.70
2018-05-18T05:33:28.838Z,7.10
2018-05-18T05:34:00.057Z,5.93
2018-05-18T05:34:31.260Z,5.93
2018-05-18T05:35:02.474Z,8.43
2018-05-18T05:35:33.693Z,7.70
2018-05-18T05:36:04.937Z,5.13
2018-05-18T05:36:36.144Z,7.17
2018-05-18T05:37:07.358Z,7.30
2018-05-18T05:37:38.564Z,5.57
2018-05-18T05:38:09.879Z,7.63
2018-05-18T05:38:41.154Z,6.07
2018-05-18T05:39:12.477Z,8.40
2018-05-18T05:39:43.813Z,8.30
2018-05-18T05:40:15.069Z,6.80
2018-05-18T05:40:46.364Z,6.63
2018-05-18T05:41:17.630Z,5.13
2018-05-18T05:41:48.908Z,4.93
2018-05-18T05:42:20.168Z,4.90
2018-05-18T05:42:51.443Z,6.20
2018-05-18T05:43:22.768Z,6.87
2018-05-18T05:43:54.097Z,6.53
2018-05-18T05:44:25.369Z,6.07
2018-05-18T05:44:56.690Z,4.33
2018-05-18T05:45:27.978Z,5.07
2018-05-18T05:45:59.220Z,3.63
2018-05-18T05:46:30.463Z,6.93
2018-05-18T05:47:01.718Z,5.10
2018-05-18T05:47:33.050Z,4.30
2018-05-18T05:48:04.314Z,6.30
2018-05-18T05:48:35.609Z,6.17
2018-05-18T05:49:06.871Z,8.13
2018-05-18T05:49:38.154Z,5.10
2018-05-18T05:50:09.450Z,5.50
2018-05-18T05:50:40.722Z,3.70
2018-05-18T05:51:11.973Z,6.97
2018-05-18T05:51:43.233Z,6.93
2018-05-18T05:52:14.553Z,5.73
2018-05-18T05:52:45.874Z,4.63
2018-05-18T05:53:17.120Z,4.23
2018-05-18T05:53:48.365Z,8.27
2018-05-18T05:54:19.595Z,7.40
2018-05-18T05:54:50.824Z,6.30
2018-05-18T05:55:22.078Z,6.67
2018-05-18T05:55:53.385Z,5.87
2018-05-18T05:56:24.651Z,4.07
2018-05-18T05:56:55.883Z,4.80
2018-05-18T05:57:27.122Z,6.17
2018-05-18T05:57:58.385Z,6.33
2018-05-18T05:58:29.682Z,5.53
2018-05-18T05:59:00.830Z,4.57
2018-05-18T05:59:32.073Z,5.13
2018-05-18T06:00:03.289Z,5.70
2018-05-18T06:00:34.538Z,7.73
2018-05-18T06:01:05.749Z,6.10
2018-05-18T06:01:37.029Z,6.87
2018-05-18T06:02:08.286Z,5.63
2018-05-18T06:02:39.497Z,5.23
2018-05-18T06:03:10.709Z,8.07
2018-05-18T06:03:41.919Z,5.40
2018-05-18T06:04:13.140Z,6.87
2018-05-18T06:04:44.358Z,5.73
2018-05-18T06:05:15.609Z,5.87
2018-05-18T06:05:46.857Z,8.63
2018-05-18T06:06:18.084Z,6.70
2018-05-18T06:06:49.313Z,8.63
2018-05-18T06:07:20.538Z,4.83
2018-05-18T06:07:51.749Z,6.17
2018-05-18T06:08:22.982Z,4.80
2018-05-18T06:08:54.203Z,6.27
2018-05-18T06:09:25.429Z,7.57
2018-05-18T06:09:56.640Z,6.13
2018-05-18T06:10:27.895Z,9.13
2018-05-18T06:10:59.121Z,5.70
2018-05-18T06:11:30.362Z,6.50
2018-05-18T06:12:02.244Z,6.57
2018-05-18T06:12:33.452Z,6.07
2018-05-18T06:13:04.705Z,7.67
2018-05-18T06:13:36.312Z,5.87
2018-05-18T06:14:07.529Z,6.77
2018-05-18T06:14:38.749Z,8.93
2018-05-18T06:15:09.969Z,6.43
2018-05-18T06:15:41.169Z,5.00
2018-05-18T06:16:12.461Z,9.50
2018-05-18T06:16:43.726Z,6.37
2018-05-18T06:17:15.008Z,4.10
2018-05-18T06:17:46.297Z,7.87
2018-05-18T06:18:17.616Z,6.43
2018-05-18T06:18:48.846Z,5.60
2018-05-18T06:19:20.061Z,6.17
2018-05-18T06:19:51.293Z,6.47
2018-05-18T06:20:22.496Z,7.90
2018-05-18T06:20:53.759Z,7.43
2018-05-18T06:21:24.973Z,8.20
2018-05-18T06:21:56.181Z,10.33
2018-05-18T06:22:27.429Z,4.47
2018-05-18T06:22:58.661Z,8.33
2018-05-18T06:23:29.882Z,8.87
2018-05-18T06:24:01.112Z,5.90
2018-05-18T06:24:32.337Z,6.17
2018-05-18T06:25:03.545Z,5.00
2018-05-18T06:25:34.753Z,5.60
2018-05-18T06:26:06.005Z,7.67
2018-05-18T06:26:37.235Z,5.40
2018-05-18T06:27:08.449Z,4.90
2018-05-18T06:27:39.649Z,9.43
2018-05-18T06:28:10.857Z,4.57
2018-05-18T06:28:42.133Z,10.33
2018-05-18T06:29:13.350Z,4.60
2018-05-18T06:29:44.567Z,8.00
2018-05-18T06:30:15.781Z,5.40
2018-05-18T06:30:47.000Z,6.93
2018-05-18T06:31:18.215Z,5.70
2018-05-18T06:31:49.435Z,3.77
2018-05-18T06:32:20.649Z,6.57
2018-05-18T06:32:51.859Z,5.27
2018-05-18T06:33:23.070Z,4.90
2018-05-18T06:33:54.312Z,4.67
2018-05-18T06:34:25.549Z,5.00
2018-05-18T06:34:56.791Z,4.30
2018-05-18T06:35:27.988Z,5.57
2018-05-18T06:35:59.454Z,5.87
2018-05-18T06:36:30.658Z,10.77
2018-05-18T06:37:01.869Z,8.60
2018-05-18T06:37:33.132Z,5.03
2018-05-18T06:38:04.363Z,4.60
2018-05-18T06:38:35.589Z,4.57
2018-05-18T06:39:06.805Z,8.00
2018-05-18T06:39:38.042Z,6.67
2018-05-18T06:40:09.330Z,7.00
2018-05-18T06:40:40.553Z,4.70
2018-05-18T06:41:11.903Z,7.40
2018-05-18T06:41:43.082Z,4.50
2018-05-18T06:42:14.374Z,4.43
2018-05-18T06:42:45.591Z,4.53
2018-05-18T06:43:16.797Z,4.53
2018-05-18T06:43:48.009Z,5.43
2018-05-18T06:44:19.230Z,4.13
2018-05-18T06:44:50.442Z,5.73
2018-05-18T06:45:21.706Z,4.97
2018-05-18T06:45:52.943Z,7.30
2018-05-18T06:46:24.181Z,9.40
2018-05-18T06:46:55.442Z,8.03
2018-05-18T06:47:26.688Z,5.00
2018-05-18T06:47:57.938Z,5.23
2018-05-18T06:48:29.152Z,7.00
2018-05-18T06:49:00.363Z,3.50
2018-05-18T06:49:31.569Z,4.97
2018-05-18T06:50:02.780Z,4.23
2018-05-18T06:50:34.029Z,5.47
2018-05-18T06:51:05.238Z,4.47
2018-05-18T06:51:36.453Z,5.37
2018-05-18T06:52:07.679Z,6.40
2018-05-18T06:52:38.981Z,5.40
2018-05-18T06:53:10.186Z,10.87
2018-05-18T06:53:41.423Z,10.80
2018-05-18T06:54:12.672Z,6.20